createdAt,value
2018-03-11T00:00:10.540Z,34.90
2018-03-11T00:01:10.505Z,33.50
2018-03-11T00:02:10.477Z,35.90
2018-03-11T00:03:10.454Z,39.80
2018-03-11T00:04:10.399Z,33.90
2018-03-11T00:05:10.379Z,33.80
2018-03-11T00:06:10.328Z,38.80
2018-03-11T00:07:10.296Z,36.10
2018-03-11T00:08:10.249Z,41.00
2018-03-11T00:09:10.225Z,38.80
2018-03-11T00:10:10.173Z,39.40
2018-03-11T00:11:10.180Z,35.80
2018-03-11T00:12:10.096Z,40.00
2018-03-11T00:13:10.125Z,39.50
2018-03-11T00:14:10.031Z,35.70
2018-03-11T00:15:09.997Z,38.00
2018-03-11T00:16:09.945Z,38.20
2018-03-11T00:17:09.933Z,36.80
2018-03-11T00:18:09.894Z,35.30
2018-03-11T00:19:09.833Z,36.40
2018-03-11T00:20:09.798Z,36.30
2018-03-11T00:21:09.758Z,35.40
2018-03-11T00:22:09.732Z,38.70
2018-03-11T00:23:09.696Z,35.70
2018-03-11T00:24:09.681Z,34.70
2018-03-11T00:25:09.692Z,36.90
2018-03-11T00:26:09.608Z,33.00
2018-03-11T00:27:09.539Z,38.80
2018-03-11T00:28:09.520Z,37.00
2018-03-11T00:29:09.511Z,33.40
2018-03-11T00:30:09.457Z,39.70
2018-03-11T00:31:09.386Z,33.50
2018-03-11T00:32:09.444Z,32.80
2018-03-11T00:33:09.320Z,34.70
2018-03-11T00:34:09.308Z,30.00
2018-03-11T00:35:09.275Z,34.60
2018-03-11T00:36:09.213Z,36.10
2018-03-11T00:37:09.228Z,34.60
2018-03-11T00:38:09.148Z,36.70
2018-03-11T00:39:09.095Z,36.80
2018-03-11T00:40:09.085Z,36.70
2018-03-11T00:41:09.023Z,34.90
2018-03-11T00:42:09.005Z,37.00
2018-03-11T00:43:08.962Z,40.30
2018-03-11T00:44:08.910Z,38.90
2018-03-11T00:45:08.878Z,38.60
2018-03-11T00:46:08.886Z,38.40
2018-03-11T00:47:08.851Z,38.30
2018-03-11T00:48:08.756Z,40.50
2018-03-11T00:49:08.753Z,36.40
2018-03-11T00:50:08.696Z,39.60
2018-03-11T00:51:08.702Z,36.50
2018-03-11T00:52:08.719Z,35.80
2018-03-11T00:53:08.589Z,38.30
2018-03-11T00:54:08.556Z,38.60
2018-03-11T00:55:08.496Z,36.20
2018-03-11T00:56:08.492Z,37.50
2018-03-11T00:57:08.442Z,34.00
2018-03-11T00:58:08.407Z,36.90
2018-03-11T00:59:08.355Z,36.30
2018-03-11T01:00:08.315Z,42.40
2018-03-11T01:01:08.289Z,36.40
2018-03-11T01:02:08.275Z,38.20
2018-03-11T01:03:08.204Z,34.60
2018-03-11T01:04:08.185Z,37.70
2018-03-11T01:05:08.144Z,37.10
2018-03-11T01:06:08.104Z,38.30
2018-03-11T01:07:08.057Z,34.60
2018-03-11T01:08:08.029Z,34.40
2018-03-11T01:09:07.982Z,39.30
2018-03-11T01:10:07.945Z,33.90
2018-03-11T01:11:07.932Z,34.70
2018-03-11T01:12:07.883Z,39.00
2018-03-11T01:13:07.830Z,33.20
2018-03-11T01:14:07.804Z,34.90
2018-03-11T01:15:07.792Z,38.60
2018-03-11T01:16:07.739Z,38.00
2018-03-11T01:17:08.037Z,37.30
2018-03-11T01:18:07.666Z,38.10
2018-03-11T01:19:07.608Z,38.70
2018-03-11T01:20:12.196Z,37.10
2018-03-11T01:21:07.560Z,34.60
2018-03-11T01:22:07.498Z,38.00
2018-03-11T01:23:07.475Z,41.60
2018-03-11T01:24:07.446Z,40.00
2018-03-11T01:25:07.420Z,34.80
2018-03-11T01:26:07.360Z,36.30
2018-03-11T01:27:08.724Z,36.40
2018-03-11T01:28:07.361Z,37.60
2018-03-11T01:29:07.239Z,37.50
2018-03-11T01:30:07.199Z,36.60
2018-03-11T01:31:07.201Z,41.20
2018-03-11T01:32:07.128Z,38.40
2018-03-11T01:33:07.174Z,38.30
2018-03-11T01:34:09.239Z,38.30
2018-03-11T01:35:08.724Z,40.80
2018-03-11T01:36:07.098Z,40.20
2018-03-11T01:37:06.953Z,40.70
2018-03-11T01:38:06.906Z,37.70
2018-03-11T01:39:06.879Z,41.80
2018-03-11T01:40:06.828Z,39.10
2018-03-11T01:41:06.810Z,40.60
2018-03-11T01:42:06.791Z,42.40
2018-03-11T01:43:06.726Z,41.50
2018-03-11T01:44:06.687Z,41.70
2018-03-11T01:45:06.720Z,46.00
2018-03-11T01:46:06.638Z,40.40
2018-03-11T01:47:06.580Z,45.40
2018-03-11T01:48:06.526Z,45.80
2018-03-11T01:49:06.525Z,43.50
2018-03-11T01:50:06.470Z,42.60
2018-03-11T01:51:06.532Z,44.30
2018-03-11T01:52:06.385Z,48.70
2018-03-11T01:53:06.457Z,46.30
2018-03-11T01:54:06.318Z,46.70
2018-03-11T01:55:06.280Z,46.40
2018-03-11T01:56:06.291Z,49.20
2018-03-11T01:57:06.205Z,47.00
2018-03-11T01:58:06.158Z,46.90
2018-03-11T01:59:06.155Z,44.60
2018-03-11T02:00:06.135Z,48.30
2018-03-11T02:01:06.056Z,46.10
2018-03-11T02:02:06.035Z,45.10
2018-03-11T02:03:05.968Z,47.00
2018-03-11T02:04:05.941Z,45.40
2018-03-11T02:05:05.938Z,46.20
2018-03-11T02:06:05.875Z,46.20
2018-03-11T02:07:05.846Z,42.40
2018-03-11T02:08:05.815Z,42.70
2018-03-11T02:09:05.787Z,41.60
2018-03-11T02:10:05.761Z,39.70
2018-03-11T02:11:05.673Z,42.20
2018-03-11T02:12:05.662Z,38.30
2018-03-11T02:13:05.658Z,40.10
2018-03-11T02:14:05.564Z,40.60
2018-03-11T02:15:05.592Z,44.70
2018-03-11T02:16:05.487Z,45.90
2018-03-11T02:17:05.578Z,46.10
2018-03-11T02:18:05.482Z,44.50
2018-03-11T02:19:05.401Z,59.70
2018-03-11T02:20:05.866Z,58.90
2018-03-11T02:21:06.364Z,59.00
2018-03-11T02:22:06.366Z,54.20
2018-03-11T02:23:05.243Z,58.10
2018-03-11T02:24:05.203Z,54.60
2018-03-11T02:25:05.203Z,61.70
2018-03-11T02:26:05.153Z,60.00
2018-03-11T02:27:05.078Z,56.80
2018-03-11T02:28:05.056Z,55.90
2018-03-11T02:29:05.052Z,62.70
2018-03-11T02:30:04.980Z,54.20
2018-03-11T02:31:04.940Z,58.60
2018-03-11T02:32:04.920Z,57.10
2018-03-11T02:33:04.891Z,52.30
2018-03-11T02:34:04.840Z,51.70
2018-03-11T02:35:04.782Z,53.50
2018-03-11T02:36:04.742Z,54.80
2018-03-11T02:37:04.706Z,48.70
2018-03-11T02:38:04.675Z,51.20
2018-03-11T02:39:04.650Z,46.20
2018-03-11T02:40:04.599Z,51.30
2018-03-11T02:41:04.558Z,45.80
2018-03-11T02:42:04.580Z,49.40
2018-03-11T02:43:04.508Z,53.00
2018-03-11T02:44:04.453Z,52.20
2018-03-11T02:45:04.414Z,50.40
2018-03-11T02:46:04.374Z,55.30
2018-03-11T02:47:04.337Z,50.00
2018-03-11T02:48:04.298Z,57.70
2018-03-11T02:49:04.283Z,52.40
2018-03-11T02:50:04.224Z,56.00
2018-03-11T02:51:04.193Z,59.80
2018-03-11T02:52:04.160Z,52.20
2018-03-11T02:53:04.124Z,58.50
2018-03-11T02:54:04.078Z,57.40
2018-03-11T02:55:04.035Z,56.80
2018-03-11T02:56:04.031Z,60.10
2018-03-11T02:57:03.956Z,63.30
2018-03-11T02:58:03.982Z,59.70
2018-03-11T02:59:03.896Z,60.20
2018-03-11T03:00:03.853Z,60.80
2018-03-11T03:01:03.814Z,60.70
2018-03-11T03:02:03.776Z,60.30
2018-03-11T03:03:03.748Z,59.00
2018-03-11T03:04:03.700Z,59.70
2018-03-11T03:05:03.662Z,59.10
2018-03-11T03:06:03.667Z,65.80
2018-03-11T03:07:03.587Z,76.50
2018-03-11T03:08:03.561Z,73.90
2018-03-11T03:09:03.525Z,80.30
2018-03-11T03:10:03.488Z,92.30
2018-03-11T03:11:03.467Z,84.20
2018-03-11T03:12:03.393Z,87.20
2018-03-11T03:13:03.363Z,81.10
2018-03-11T03:14:03.327Z,88.10
2018-03-11T03:15:03.307Z,88.00
2018-03-11T03:16:03.256Z,91.40
2018-03-11T03:17:03.209Z,84.40
2018-03-11T03:18:03.171Z,95.60
2018-03-11T03:19:03.150Z,87.90
2018-03-11T03:20:03.103Z,98.20
2018-03-11T03:21:03.060Z,95.30
2018-03-11T03:22:03.025Z,92.20
2018-03-11T03:23:02.991Z,96.00
2018-03-11T03:24:02.947Z,100.10
2018-03-11T03:25:02.945Z,102.50
2018-03-11T03:26:02.878Z,98.50
2018-03-11T03:27:02.849Z,105.70
2018-03-11T03:28:02.830Z,95.30
2018-03-11T03:29:02.757Z,112.90
2018-03-11T03:30:02.835Z,118.20
2018-03-11T03:31:02.714Z,107.10
2018-03-11T03:32:02.644Z,125.70
2018-03-11T03:33:02.615Z,128.60
2018-03-11T03:34:02.601Z,111.10
2018-03-11T03:35:02.538Z,120.80
2018-03-11T03:36:02.502Z,122.10
2018-03-11T03:37:02.460Z,132.00
2018-03-11T03:38:02.425Z,127.00
2018-03-11T03:39:02.438Z,137.50
2018-03-11T03:40:02.352Z,128.40
2018-03-11T03:41:02.348Z,130.50
2018-03-11T03:42:02.270Z,139.70
2018-03-11T03:43:02.239Z,151.40
2018-03-11T03:44:02.196Z,135.10
2018-03-11T03:45:02.184Z,138.20
2018-03-11T03:46:02.131Z,139.00
2018-03-11T03:47:02.080Z,139.40
2018-03-11T03:48:02.047Z,134.20
2018-03-11T03:49:02.032Z,125.20
2018-03-11T03:50:01.983Z,123.50
2018-03-11T03:51:01.962Z,126.00
2018-03-11T03:52:01.903Z,126.70
2018-03-11T03:53:01.891Z,130.90
2018-03-11T03:54:01.866Z,127.60
2018-03-11T03:55:01.805Z,118.00
2018-03-11T03:56:01.775Z,126.40
2018-03-11T03:57:01.732Z,135.00
2018-03-11T03:58:01.698Z,132.10
2018-03-11T03:59:01.634Z,120.90
2018-03-11T04:00:01.638Z,127.30
2018-03-11T04:01:01.551Z,125.00
2018-03-11T04:02:01.543Z,128.00
2018-03-11T04:03:01.486Z,125.50
2018-03-11T04:04:01.481Z,126.30
2018-03-11T04:05:01.408Z,132.50
2018-03-11T04:06:01.365Z,129.30
2018-03-11T04:07:01.347Z,130.60
2018-03-11T04:08:01.322Z,139.80
2018-03-11T04:09:01.270Z,157.30
2018-03-11T04:10:01.268Z,149.70
2018-03-11T04:11:01.220Z,148.10
2018-03-11T04:12:01.143Z,153.30
2018-03-11T04:13:01.108Z,136.30
2018-03-11T04:14:01.078Z,146.70
2018-03-11T04:15:01.037Z,138.60
2018-03-11T04:16:00.994Z,127.60
2018-03-11T04:17:00.960Z,126.60
2018-03-11T04:18:00.940Z,132.50
2018-03-11T04:19:00.894Z,129.10
2018-03-11T04:20:00.844Z,113.50
2018-03-11T04:21:00.812Z,128.90
2018-03-11T04:22:00.782Z,114.30
2018-03-11T04:23:00.731Z,116.40
2018-03-11T04:24:00.730Z,111.80
2018-03-11T04:25:00.659Z,109.80
2018-03-11T04:26:00.614Z,113.00
2018-03-11T04:27:00.576Z,111.40
2018-03-11T04:28:00.544Z,106.80
2018-03-11T04:29:00.503Z,100.40
2018-03-11T04:30:00.508Z,89.70
2018-03-11T04:31:00.433Z,86.50
2018-03-11T04:32:00.394Z,80.30
2018-03-11T04:33:00.357Z,83.20
2018-03-11T04:34:00.322Z,83.10
2018-03-11T04:35:00.287Z,80.70
2018-03-11T04:36:00.269Z,80.80
2018-03-11T04:37:00.255Z,75.90
2018-03-11T04:38:00.184Z,74.90
2018-03-11T04:39:00.149Z,74.10
2018-03-11T04:40:00.102Z,77.10
2018-03-11T04:41:00.055Z,74.50
2018-03-11T04:42:00.014Z,77.50
2018-03-11T04:43:00.006Z,81.20
2018-03-11T04:43:59.938Z,74.70
2018-03-11T04:44:59.963Z,78.90
2018-03-11T04:45:59.886Z,73.40
2018-03-11T04:46:59.832Z,76.80
2018-03-11T04:47:59.798Z,76.40
2018-03-11T04:48:59.802Z,73.30
2018-03-11T04:49:59.760Z,72.60
2018-03-11T04:50:59.681Z,74.60
2018-03-11T04:51:59.642Z,64.30
2018-03-11T04:52:59.617Z,70.30
2018-03-11T04:53:59.572Z,65.80
2018-03-11T04:54:59.560Z,66.00
2018-03-11T04:55:59.494Z,69.30
2018-03-11T04:56:59.465Z,66.70
2018-03-11T04:57:59.430Z,64.00
2018-03-11T04:58:59.398Z,72.60
2018-03-11T04:59:59.356Z,68.90
2018-03-11T05:00:59.351Z,72.40
2018-03-11T05:01:59.280Z,70.30
2018-03-11T05:02:59.242Z,69.70
2018-03-11T05:03:59.240Z,68.10
2018-03-11T05:04:59.182Z,71.60
2018-03-11T05:05:59.184Z,71.90
2018-03-11T05:06:59.118Z,69.60
2018-03-11T05:07:59.057Z,64.90
2018-03-11T05:08:59.069Z,67.90
2018-03-11T05:09:58.975Z,66.80
2018-03-11T05:10:58.945Z,63.70
2018-03-11T05:11:58.934Z,62.10
2018-03-11T05:12:58.874Z,65.50
2018-03-11T05:13:58.853Z,66.70
2018-03-11T05:14:58.782Z,63.10
2018-03-11T05:15:58.781Z,67.20
2018-03-11T05:16:58.771Z,66.80
2018-03-11T05:17:58.686Z,65.70
2018-03-11T05:18:58.677Z,58.80
2018-03-11T05:19:58.617Z,61.70
2018-03-11T05:20:58.567Z,61.90
2018-03-11T05:21:58.522Z,61.10
2018-03-11T05:22:58.521Z,61.80
2018-03-11T05:23:58.453Z,62.90
2018-03-11T05:24:58.417Z,59.70
2018-03-11T05:25:58.371Z,57.60
2018-03-11T05:26:58.341Z,59.30
2018-03-11T05:27:58.328Z,59.30
2018-03-11T05:28:58.263Z,55.90
2018-03-11T05:29:58.234Z,55.90
2018-03-11T05:30:58.234Z,60.20
2018-03-11T05:31:58.156Z,60.40
2018-03-11T05:32:58.113Z,58.30
2018-03-11T05:33:58.075Z,62.70
2018-03-11T05:34:58.065Z,58.60
2018-03-11T05:35:58.015Z,54.90
2018-03-11T05:36:57.964Z,55.90
2018-03-11T05:37:57.958Z,57.20
2018-03-11T05:38:57.894Z,57.20
2018-03-11T05:39:57.856Z,57.30
2018-03-11T05:40:57.822Z,58.40
2018-03-11T05:41:57.788Z,60.30
2018-03-11T05:42:57.758Z,59.70
2018-03-11T05:43:57.717Z,55.00
2018-03-11T05:44:57.670Z,55.10
2018-03-11T05:45:57.665Z,55.90
2018-03-11T05:46:57.626Z,56.40
2018-03-11T05:47:57.559Z,53.10
2018-03-11T05:48:57.523Z,61.10
2018-03-11T05:49:57.483Z,58.60
2018-03-11T05:50:57.448Z,56.90
2018-03-11T05:51:57.411Z,60.60
2018-03-11T05:52:57.375Z,59.60
2018-03-11T05:53:57.345Z,54.00
2018-03-11T05:54:57.300Z,60.00
2018-03-11T05:55:57.259Z,58.00
2018-03-11T05:56:57.225Z,57.00
2018-03-11T05:57:57.188Z,57.30
2018-03-11T05:58:57.151Z,64.40
2018-03-11T05:59:57.113Z,63.40
2018-03-11T06:00:57.076Z,63.10
2018-03-11T06:01:57.040Z,62.60
2018-03-11T06:02:56.999Z,64.10
2018-03-11T06:03:56.966Z,67.20
2018-03-11T06:04:56.928Z,61.00
2018-03-11T06:05:56.891Z,62.40
2018-03-11T06:06:56.851Z,60.60
2018-03-11T06:07:56.821Z,58.40
2018-03-11T06:08:56.778Z,60.50
2018-03-11T06:09:56.742Z,61.70
2018-03-11T06:10:56.704Z,57.40
2018-03-11T06:11:56.666Z,58.80
2018-03-11T06:12:56.629Z,56.50
2018-03-11T06:13:56.594Z,58.40
2018-03-11T06:14:56.555Z,59.40
2018-03-11T06:15:56.519Z,56.00
2018-03-11T06:16:56.485Z,55.30
2018-03-11T06:17:56.447Z,59.60
2018-03-11T06:18:56.407Z,58.40
2018-03-11T06:19:56.373Z,58.00
2018-03-11T06:20:56.331Z,54.30
2018-03-11T06:21:56.297Z,54.20
2018-03-11T06:22:56.264Z,58.10
2018-03-11T06:23:56.221Z,53.70
2018-03-11T06:24:56.187Z,54.20
2018-03-11T06:25:56.145Z,52.50
2018-03-11T06:26:56.107Z,51.00
2018-03-11T06:27:56.073Z,48.60
2018-03-11T06:28:56.039Z,54.60
2018-03-11T06:29:55.995Z,53.70
2018-03-11T06:30:55.964Z,47.60
2018-03-11T06:31:55.925Z,51.00
2018-03-11T06:32:55.889Z,55.90
2018-03-11T06:33:55.852Z,52.40
2018-03-11T06:34:55.815Z,51.10
2018-03-11T06:35:55.776Z,50.20
2018-03-11T06:36:55.739Z,48.20
2018-03-11T06:37:55.701Z,54.00
2018-03-11T06:38:55.684Z,51.00
2018-03-11T06:39:55.625Z,46.40
2018-03-11T06:40:55.589Z,46.90
2018-03-11T06:41:55.553Z,48.10
2018-03-11T06:42:55.519Z,48.70
2018-03-11T06:43:55.477Z,52.70
2018-03-11T06:44:55.444Z,46.90
2018-03-11T06:45:55.406Z,46.00
2018-03-11T06:46:55.370Z,50.20
2018-03-11T06:47:55.330Z,47.50
2018-03-11T06:48:55.296Z,46.10
2018-03-11T06:49:55.256Z,45.80
2018-03-11T06:50:55.220Z,45.30
2018-03-11T06:51:55.180Z,41.50
2018-03-11T06:52:55.144Z,45.20
2018-03-11T06:53:55.108Z,39.50
2018-03-11T06:54:55.077Z,45.30
2018-03-11T06:55:55.038Z,45.60
2018-03-11T06:56:54.998Z,46.50
2018-03-11T06:57:54.963Z,45.60
2018-03-11T06:58:54.928Z,41.40
2018-03-11T06:59:54.884Z,43.60
2018-03-11T07:00:54.850Z,42.90
2018-03-11T07:01:54.834Z,41.30
2018-03-11T07:02:54.776Z,38.80
2018-03-11T07:03:54.740Z,41.70
2018-03-11T07:04:54.705Z,36.50
2018-03-11T07:05:54.668Z,39.20
2018-03-11T07:06:54.633Z,38.10
2018-03-11T07:07:54.592Z,37.50
2018-03-11T07:08:54.557Z,35.00
2018-03-11T07:09:54.520Z,37.30
2018-03-11T07:10:54.516Z,35.30
2018-03-11T07:11:54.447Z,33.70
2018-03-11T07:12:54.410Z,34.60
2018-03-11T07:13:54.374Z,36.50
2018-03-11T07:14:54.338Z,31.50
2018-03-11T07:15:54.305Z,36.60
2018-03-11T07:16:54.264Z,34.40
2018-03-11T07:17:54.227Z,33.30
2018-03-11T07:18:54.196Z,33.00
2018-03-11T07:19:54.156Z,31.30
2018-03-11T07:20:54.120Z,33.90
2018-03-11T07:21:54.081Z,34.30
2018-03-11T07:22:54.045Z,33.50
2018-03-11T07:23:54.008Z,30.80
2018-03-11T07:24:53.974Z,32.60
2018-03-11T07:25:53.937Z,30.80
2018-03-11T07:26:53.899Z,30.30
2018-03-11T07:27:53.866Z,33.40
2018-03-11T07:28:53.829Z,31.40
2018-03-11T07:29:53.788Z,31.10
2018-03-11T07:30:53.753Z,29.90
2018-03-11T07:31:53.719Z,30.90
2018-03-11T07:32:53.679Z,29.60
2018-03-11T07:33:53.645Z,28.50
2018-03-11T07:34:53.606Z,28.10
2018-03-11T07:35:53.578Z,30.70
2018-03-11T07:36:53.537Z,30.30
2018-03-11T07:37:53.495Z,31.20
2018-03-11T07:38:53.464Z,29.80
2018-03-11T07:39:53.423Z,32.10
2018-03-11T07:40:53.387Z,27.80
2018-03-11T07:41:53.351Z,31.40
2018-03-11T07:42:53.317Z,30.60
2018-03-11T07:43:53.283Z,31.70
2018-03-11T07:44:53.240Z,29.60
2018-03-11T07:45:53.207Z,31.60
2018-03-11T07:46:53.168Z,30.20
2018-03-11T07:47:53.131Z,31.50
2018-03-11T07:48:53.096Z,32.90
2018-03-11T07:49:53.061Z,29.30
2018-03-11T07:50:53.021Z,30.40
2018-03-11T07:51:52.986Z,28.40
2018-03-11T07:52:52.948Z,30.30
2018-03-11T07:53:52.912Z,29.10
2018-03-11T07:54:52.877Z,28.20
2018-03-11T07:55:52.838Z,29.60
2018-03-11T07:56:52.802Z,28.90
2018-03-11T07:57:52.766Z,28.40
2018-03-11T07:58:52.746Z,28.20
2018-03-11T07:59:52.693Z,28.60
2018-03-11T08:00:52.657Z,30.80
2018-03-11T08:01:52.635Z,32.50
2018-03-11T08:02:52.580Z,29.60
2018-03-11T08:03:52.546Z,29.10
2018-03-11T08:04:52.511Z,32.10
2018-03-11T08:05:52.472Z,29.00
2018-03-11T08:06:52.438Z,30.50
2018-03-11T08:07:52.399Z,24.50
2018-03-11T08:08:52.364Z,28.10
2018-03-11T08:09:52.331Z,28.70
2018-03-11T08:10:52.292Z,27.30
2018-03-11T08:11:52.256Z,24.90
2018-03-11T08:12:52.218Z,26.30
2018-03-11T08:13:52.183Z,25.90
2018-03-11T08:14:52.154Z,30.30
2018-03-11T08:15:52.109Z,22.60
2018-03-11T08:16:52.072Z,26.90
2018-03-11T08:17:52.039Z,24.80
2018-03-11T08:18:52.002Z,24.90
2018-03-11T08:19:51.961Z,27.60
2018-03-11T08:20:51.927Z,29.80
2018-03-11T08:21:51.892Z,26.20
2018-03-11T08:22:51.855Z,24.60
2018-03-11T08:23:51.819Z,24.20
2018-03-11T08:24:51.785Z,23.80
2018-03-11T08:25:51.788Z,26.70
2018-03-11T08:26:51.711Z,21.90
2018-03-11T08:27:51.683Z,23.10
2018-03-11T08:28:51.640Z,22.90
2018-03-11T08:29:51.604Z,24.10
2018-03-11T08:30:51.567Z,25.10
2018-03-11T08:31:51.531Z,22.40
2018-03-11T08:32:51.496Z,26.60
2018-03-11T08:33:51.463Z,24.10
2018-03-11T08:34:51.425Z,23.40
2018-03-11T08:35:51.389Z,23.30
2018-03-11T08:36:51.350Z,20.10
2018-03-11T08:37:51.318Z,23.50
2018-03-11T08:38:51.280Z,24.90
2018-03-11T08:39:51.244Z,21.60
2018-03-11T08:40:51.218Z,25.70
2018-03-11T08:41:51.172Z,20.40
2018-03-11T08:42:51.141Z,19.80
2018-03-11T08:43:51.105Z,23.70
2018-03-11T08:44:51.067Z,18.80
2018-03-11T08:45:51.030Z,23.30
2018-03-11T08:46:50.996Z,22.40
2018-03-11T08:47:50.962Z,22.60
2018-03-11T08:48:50.932Z,19.60
2018-03-11T08:49:50.889Z,19.80
2018-03-11T08:50:51.199Z,20.60
2018-03-11T08:51:50.820Z,21.70
2018-03-11T08:52:50.788Z,18.80
2018-03-11T08:53:50.798Z,23.30
2018-03-11T08:54:50.712Z,19.30
2018-03-11T08:55:50.680Z,17.60
2018-03-11T08:56:50.642Z,20.20
2018-03-11T08:57:50.602Z,18.40
2018-03-11T08:58:50.568Z,22.90
2018-03-11T08:59:50.537Z,18.80
2018-03-11T09:00:50.496Z,19.60
2018-03-11T09:01:50.463Z,19.00
2018-03-11T09:02:50.429Z,18.40
2018-03-11T09:03:50.389Z,19.20
2018-03-11T09:04:50.355Z,16.50
2018-03-11T09:05:50.319Z,18.00
2018-03-11T09:06:50.285Z,16.40
2018-03-11T09:07:50.254Z,18.80
2018-03-11T09:08:50.214Z,18.70
2018-03-11T09:09:50.175Z,16.30
2018-03-11T09:10:50.143Z,14.70
2018-03-11T09:11:50.112Z,17.20
2018-03-11T09:12:50.076Z,17.80
2018-03-11T09:13:50.039Z,13.90
2018-03-11T09:14:50.011Z,14.70
2018-03-11T09:15:49.967Z,13.10
2018-03-11T09:16:49.930Z,13.40
2018-03-11T09:17:49.903Z,12.90
2018-03-11T09:18:49.861Z,12.90
2018-03-11T09:19:49.827Z,14.40
2018-03-11T09:20:49.793Z,12.50
2018-03-11T09:21:49.756Z,13.30
2018-03-11T09:22:49.721Z,10.80
2018-03-11T09:23:49.686Z,13.10
2018-03-11T09:24:49.652Z,11.50
2018-03-11T09:25:49.615Z,8.20
2018-03-11T09:26:49.588Z,9.20
2018-03-11T09:27:49.544Z,13.60
2018-03-11T09:28:49.512Z,11.50
2018-03-11T09:29:49.476Z,12.50
2018-03-11T09:30:49.442Z,12.00
2018-03-11T09:31:49.412Z,9.90
2018-03-11T09:32:49.373Z,9.20
2018-03-11T09:33:49.339Z,9.50
2018-03-11T09:34:49.323Z,10.30
2018-03-11T09:35:49.269Z,11.70
2018-03-11T09:36:49.237Z,10.60
2018-03-11T09:37:49.199Z,9.40
2018-03-11T09:38:49.167Z,7.40
2018-03-11T09:39:49.132Z,7.80
2018-03-11T09:40:49.097Z,9.60
2018-03-11T09:41:49.064Z,8.50
2018-03-11T09:42:49.039Z,8.70
2018-03-11T09:43:49.011Z,9.30
2018-03-11T09:44:48.963Z,9.70
2018-03-11T09:45:48.928Z,10.40
2018-03-11T09:46:48.895Z,9.40
2018-03-11T09:47:48.868Z,11.30
2018-03-11T09:48:48.829Z,9.20
2018-03-11T09:49:49.409Z,9.10
2018-03-11T09:50:48.766Z,7.60
2018-03-11T09:51:48.733Z,6.90
2018-03-11T09:52:48.702Z,8.20
2018-03-11T09:53:48.656Z,8.40
2018-03-11T09:54:48.630Z,7.10
2018-03-11T09:55:48.612Z,7.80
2018-03-11T09:56:48.593Z,7.70
2018-03-11T09:57:48.530Z,7.00
2018-03-11T09:58:49.900Z,8.70
2018-03-11T09:59:48.458Z,10.20
2018-03-11T10:00:48.424Z,9.00
2018-03-11T10:01:48.392Z,7.70
2018-03-11T10:02:48.361Z,7.80
2018-03-11T10:03:48.353Z,7.50
2018-03-11T10:04:48.293Z,6.50
2018-03-11T10:05:48.259Z,8.10
2018-03-11T10:06:48.225Z,10.10
2018-03-11T10:07:48.192Z,7.60
2018-03-11T10:08:48.156Z,5.00
2018-03-11T10:09:48.124Z,7.80
2018-03-11T10:10:48.091Z,8.30
2018-03-11T10:11:48.055Z,12.20
2018-03-11T10:12:48.022Z,6.60
2018-03-11T10:13:47.984Z,5.30
2018-03-11T10:14:47.955Z,5.10
2018-03-11T10:15:47.919Z,3.90
2018-03-11T10:16:47.885Z,5.50
2018-03-11T10:17:47.857Z,4.00
2018-03-11T10:18:47.822Z,4.60
2018-03-11T10:19:47.785Z,3.80
2018-03-11T10:20:47.751Z,3.90
2018-03-11T10:21:47.720Z,4.50
2018-03-11T10:22:47.686Z,5.30
2018-03-11T10:23:47.658Z,3.70
2018-03-11T10:24:47.618Z,3.80
2018-03-11T10:25:47.582Z,5.10
2018-03-11T10:26:47.550Z,4.80
2018-03-11T10:27:47.521Z,4.20
2018-03-11T10:28:47.491Z,5.00
2018-03-11T10:29:47.451Z,5.90
2018-03-11T10:30:47.418Z,8.50
2018-03-11T10:31:47.898Z,5.30
2018-03-11T10:32:47.351Z,5.80
2018-03-11T10:33:47.320Z,3.80
2018-03-11T10:34:47.281Z,4.50
2018-03-11T10:35:47.249Z,4.50
2018-03-11T10:36:47.218Z,6.40
2018-03-11T10:37:47.189Z,4.60
2018-03-11T10:38:47.151Z,4.40
2018-03-11T10:39:47.130Z,4.30
2018-03-11T10:40:47.085Z,4.30
2018-03-11T10:41:47.053Z,5.10
2018-03-11T10:42:47.018Z,4.40
2018-03-11T10:43:46.985Z,3.60
2018-03-11T10:44:46.953Z,4.50
2018-03-11T10:45:46.953Z,4.30
2018-03-11T10:46:46.885Z,4.50
2018-03-11T10:47:46.851Z,3.30
2018-03-11T10:48:46.820Z,4.70
2018-03-11T10:49:46.831Z,3.70
2018-03-11T10:50:46.799Z,4.20
2018-03-11T10:51:46.722Z,2.40
2018-03-11T10:52:46.685Z,8.70
2018-03-11T10:53:46.651Z,3.20
2018-03-11T10:54:46.618Z,4.70
2018-03-11T10:55:46.579Z,2.70
2018-03-11T10:56:46.550Z,3.80
2018-03-11T10:57:46.518Z,5.20
2018-03-11T10:58:46.484Z,5.80
2018-03-11T10:59:46.452Z,4.70
2018-03-11T11:00:46.422Z,2.80
2018-03-11T11:01:46.385Z,4.60
2018-03-11T11:02:46.408Z,3.40
2018-03-11T11:03:46.322Z,5.20
2018-03-11T11:04:46.284Z,3.40
2018-03-11T11:05:46.260Z,3.50
2018-03-11T11:06:46.218Z,3.70
2018-03-11T11:07:46.188Z,3.80
2018-03-11T11:08:46.186Z,3.90
2018-03-11T11:09:46.121Z,4.40
2018-03-11T11:10:46.089Z,3.70
2018-03-11T11:11:46.057Z,4.70
2018-03-11T11:12:46.019Z,6.40
2018-03-11T11:13:45.990Z,5.30
2018-03-11T11:14:45.953Z,4.60
2018-03-11T11:15:45.920Z,4.80
2018-03-11T11:16:45.885Z,3.30
2018-03-11T11:17:45.855Z,3.50
2018-03-11T11:18:45.824Z,3.10
2018-03-11T11:19:45.786Z,4.40
2018-03-11T11:20:45.758Z,4.00
2018-03-11T11:21:45.725Z,4.20
2018-03-11T11:22:45.691Z,9.40
2018-03-11T11:23:45.672Z,3.40
2018-03-11T11:24:45.624Z,6.60
2018-03-11T11:25:45.591Z,4.00
2018-03-11T11:26:45.558Z,5.10
2018-03-11T11:27:45.525Z,2.70
2018-03-11T11:28:45.492Z,3.70
2018-03-11T11:29:45.457Z,7.50
2018-03-11T11:30:45.426Z,2.40
2018-03-11T11:31:45.396Z,3.60
2018-03-11T11:32:45.361Z,6.10
2018-03-11T11:33:45.327Z,4.80
2018-03-11T11:34:45.297Z,3.20
2018-03-11T11:35:45.259Z,2.90
2018-03-11T11:36:45.227Z,3.00
2018-03-11T11:37:45.196Z,5.50
2018-03-11T11:58:01.736Z,6.50
2018-03-11T11:59:01.670Z,3.10
2018-03-11T12:00:01.637Z,3.90
2018-03-11T12:01:01.601Z,4.20
2018-03-11T12:02:01.570Z,2.90
2018-03-11T12:03:01.536Z,4.20
2018-03-11T12:04:01.501Z,2.20
2018-03-11T12:05:01.468Z,3.60
2018-03-11T12:06:01.439Z,2.40
2018-03-11T12:07:01.431Z,2.80
2018-03-11T12:08:01.371Z,2.50
2018-03-11T12:09:01.338Z,2.60
2018-03-11T12:10:01.307Z,6.10
2018-03-11T12:11:01.269Z,3.40
2018-03-11T12:12:01.238Z,2.20
2018-03-11T12:13:01.205Z,2.70
2018-03-11T12:14:01.178Z,2.70
2018-03-11T12:15:01.140Z,2.70
2018-03-11T12:16:01.109Z,2.60
2018-03-11T12:17:01.077Z,3.90
2018-03-11T12:18:01.046Z,2.30
2018-03-11T12:19:01.008Z,2.10
2018-03-11T12:20:00.974Z,3.80
2018-03-11T12:21:00.950Z,3.70
2018-03-11T12:22:00.911Z,3.00
2018-03-11T12:23:00.878Z,1.90
2018-03-11T12:24:00.847Z,2.40
2018-03-11T12:25:00.815Z,2.10
2018-03-11T12:26:00.779Z,2.90
2018-03-11T12:27:00.745Z,4.50
2018-03-11T12:28:00.714Z,1.60
2018-03-11T12:29:00.681Z,1.30
2018-03-11T12:30:00.651Z,2.90
2018-03-11T12:31:00.616Z,2.80
2018-03-11T12:32:00.584Z,2.80
2018-03-11T12:33:00.550Z,3.40
2018-03-11T12:34:00.520Z,3.20
2018-03-11T12:35:00.484Z,2.10
2018-03-11T12:36:00.465Z,1.90
2018-03-11T12:37:00.418Z,3.20
2018-03-11T12:38:00.389Z,2.80
2018-03-11T12:39:00.355Z,2.80
2018-03-11T12:40:00.323Z,4.60
2018-03-11T12:41:00.305Z,1.10
2018-03-11T12:42:00.257Z,3.50
2018-03-11T12:43:00.223Z,2.70
2018-03-11T12:44:00.198Z,2.70
2018-03-11T12:45:00.162Z,1.70
2018-03-11T12:46:00.129Z,2.90
2018-03-11T12:47:00.092Z,1.70
2018-03-11T12:48:00.064Z,1.80
2018-03-11T12:49:00.030Z,2.60
2018-03-11T12:50:00.003Z,2.90
2018-03-11T12:50:59.963Z,2.50
2018-03-11T12:51:59.930Z,2.60
2018-03-11T12:52:59.897Z,2.80
2018-03-11T12:53:59.864Z,3.80
2018-03-11T12:54:59.830Z,3.40
2018-03-11T12:55:59.801Z,2.50
2018-03-11T12:56:59.768Z,3.00
2018-03-11T12:57:59.748Z,3.50
2018-03-11T12:58:59.700Z,2.20
2018-03-11T12:59:59.669Z,1.80
2018-03-11T13:00:59.635Z,2.10
2018-03-11T13:01:59.603Z,3.10
2018-03-11T13:02:59.571Z,1.90
2018-03-11T13:03:59.540Z,2.10
2018-03-11T13:04:59.499Z,2.10
2018-03-11T13:05:59.471Z,2.20
2018-03-11T13:06:59.437Z,3.40
2018-03-11T13:07:59.405Z,2.50
2018-03-11T13:08:59.370Z,1.90
2018-03-11T13:09:59.340Z,2.20
2018-03-11T13:10:59.312Z,1.90
2018-03-11T13:11:59.273Z,5.20
2018-03-11T13:12:59.243Z,2.10
2018-03-11T13:13:59.207Z,2.00
2018-03-11T13:14:59.176Z,3.40
2018-03-11T13:15:59.141Z,2.40